Morgantown Municipal Airport

Airport
ICAO code: 
KMGW
Summary
ICAO Region: 
NAM
Territory: 
Location: 
Morgantown, West Virginia,
Coordinates: 
Aerial View: 
39° 38' 38.967" N, 79° 55' 12.249" W
Airport WX: 
Cumulonimbus
Metar
Observation
KMGW 021553Z 22011G22KT 10SM CLR 14/07 A2980 RMK AO2 SLP090 T01390067
Station
Morgantown, Morgantown Municipal-Hart Field
Date/Time
2021-12-02 15:53:00
Wind direction
220°
Wind speed
11 kts
Lowest cloud amount
n/a
Temperature
13.9°C
Dew point
6.7°C
Humidity
61%
Weather condition
n/a

Description

Morgantown Municipal Airport is a public use airport located 6 km east of the central business district of Morgantown, a city in Monongalia County, West Virginia.

Climatology

Transition between humid “subtropical” climate (Köppen climate classification Cfa) and humid "continental" climate (Köppen climate classification Dfa) - characterized by hot, humid summers and cool to cold winters. Significant amounts of precipitation occur in all seasons in most areas. Winter snowfall is associated with large storms that the westerlies steer from west to east. Most summer rainfall occurs during thunderstorms.

Runways

Designator Length Width Surface Rops
5/23 844 23 ASP Yes/Yes
18/36 1585 46 ASP Yes/Yes
Airport map: 
Aerial View: 

SKYbrary Partners:

Safety knowledge contributed by: